Terminal Aerodrome Forecast
Issued by NWS

Home | Current Version | Previous Version | Text Only | Print | Product List | Glossary On
Versions: 1 2 3 4 5 6 7 8 9 10 11 12 13 14 15
000
FTUS43 KMPX 212334
TAFAXN
TAF
KAXN 212334Z 2200/2224 14011KT P6SM BKN035
     FM220200 15011KT P6SM SCT050
      TEMPO 2206/2209 P6SM -TSRA BKN050CB
     FM221400 17012G20KT P6SM OVC019
     FM221800 17016G22KT P6SM FEW250=

USA.gov is the U.S. government's official web portal to all federal, state and local government web resources and services.